MUC | München Airways

 METAR UND TAF INFORMATION

METAR FOR LFSB
ADDS - METARS form results

(0853 UTC 22 March 2019)
Data provider http://aviationweather.gov/metar/data/
 
METAR text: LFSB 220830Z VRB02KT CAVOK 08/01 Q1030 NOSIG
Conditions at: LFSB (BALE/MULHOUSE , FR) observed 0830 UTC 22 March 2019
Temperature: 8.0°C (46°F)
Dewpoint: 1.0°C (34°F) [RH = 61%]
Pressure (altimeter): 30.41 inches Hg (1030.0 mb)
Winds: variable direction winds at 2 MPH (2 knots; 1.0 m/s)
Visibility: 6 or more miles (10+ km)
Ceiling: ceiling and visibility are OK
Clouds: unknown
Weather: no significant weather observed at this time

METAR text: LFSB 220800Z VRB01KT CAVOK 07/00 Q1030 NOSIG
Conditions at: LFSB (BALE/MULHOUSE , FR) observed 0800 UTC 22 March 2019
Temperature: 7.0°C (45°F)
Dewpoint: 0.0°C (32°F) [RH = 61%]
Pressure (altimeter): 30.41 inches Hg (1030.0 mb)
Winds: variable direction winds at 1 MPH (1 knots; 0.5 m/s)
Visibility: 6 or more miles (10+ km)
Ceiling: ceiling and visibility are OK
Clouds: unknown
Weather: no significant weather observed at this time

Forecast for: LFSB (BALE/MULHOUSE , FR)
Text: TAF LFSB 220500Z 2206/2306 VRB03KT CAVOK
Forecast period: 0600 UTC 22 March 2019 to 0600 UTC 23 March 2019
Forecast type: FROM: standard forecast or significant change
Winds: variable direction winds at 3 MPH (3 knots; 1.5 m/s)
Visibility: 6 or more miles 10+ km)
Ceiling: unknown
Clouds: missing
Weather: NSW  (no significant weather)
Text: PROB30
Forecast period: 0000 to 0600 UTC 23 March 2019
Forecast type: TEMPORARY: The following changes expected for less than half the time period
Visibility: 2.49 miles (4.01 km)
Ceiling: unknown
Clouds: missing
Weather: MIFG  (shallow fog)

 FLUGHAFENKARTE

 RUNWAY INFORMATION
Runway 08 Runway length 5969 ft Runway width 197 ft
Runway elevation 881 ft Runway displaced threshold 0 ft Runway heading 77
Runway 26 Runway length 5969 ft Runway width 197 ft
Runway elevation 884 ft Runway displaced threshold 722 ft Runway heading 257
Runway 15 Runway length 12795 ft Runway width 197 ft
Runway elevation 865 ft Runway displaced threshold 0 ft Runway heading 155
Runway 33 Runway length 12795 ft Runway width 197 ft
Runway elevation 882 ft Runway displaced threshold 0 ft Runway heading 335

 AIRPORT FREQUENCIES
Type A/D Name APP Frequency 118.575 MHZ
Type ATIS Name ATIS Frequency 127.875 MHZ
Type GND Name GND Frequency 121.6 MHZ
Type INFO Name INFO Frequency 121.25 MHZ
Type PFLT Name PREFLIGHT Frequency 120.5 MHZ
Type TWR Name TWR Frequency 118.3 MHZ

 AIRPORT NEAR NAVIGATION AIDS
Type VOR-DME Name Bale Mulhouse Frequency 117450 KHZ
Type NDB Name Bale Mulhouse Frequency 353 KHZ